Weather at Alaçatı Airport

Public forecast

Using degrees Celsius for public forecast. Weather courtesy of forecast.io.

Closest aviation weather report (METAR) to Alaçatı Airport

Report is more than 6 hours old.

Closest report is Chios Island National Airport, 14.7 nm (27.2 km) WNW.

2022/11/14 14:50 (retrieved 2 years ago)

LGHI 141450Z 36010KT CAVOK 17/09 Q1019

Closest aviation forecast (TAF) to Alaçatı Airport

Forecast is more than 12 hours old.

Closest forecast is Adnan Menderes International Airport, 34.6 nm (64.1 km) E.

2023/02/22 18:03 (retrieved 1 year ago)

TAF LTBJ 221640Z 2218/2318 VRB02KT 7000 NSC BECMG 2222/2302 3200 BR SCT010 PROB40 2302/2306 0300 FG VV001 BECMG 2307/2310 CAVOK BECMG 2310/2312 FEW030 BECMG 2313/2315 CAVOK TEMPO 2313/2317 35012KT